Colnbrook, United Kingdom
Current Conditions -  °F | °C
As of 1:20 AM on Friday 28 Nov 2014 (Local Time) from EGLL Reporting Station
Broken Clouds Broken Clouds  
Wind Chill: 50°   Ceiling: 1500
Heat Index: 50°   Visibility: 3mi
Dew Point: 48°   Wind: 6mph
Humidity: 94%   Direction: 70°ENE
Pressure: 29.59"   Gusts: NA
Location:  51.48°N, 0.52°W
Report Text: EGLL 280120Z AUTO 07005KT 5000 BKN015 10/09 Q1002
Loading
Personal Weather Stations






























Interactive Weather Map New forecast layout! Learn more

10-Day Weather Forecast

Advertisements
Track Severe Weather on mobile